sensor_id;sensor_type;location;lat;lon;timestamp;noise_LAeq;noise_LA_min;noise_LA_max;noise_LA01;noise_LA95
67308;Laerm;57662;51.436;5.978;2022-11-15T00:00:01;34.67;33.14;36.31;;
67308;Laerm;57662;51.436;5.978;2022-11-15T00:00:11;39.20;32.28;53.12;;
67308;Laerm;57662;51.436;5.978;2022-11-15T00:00:22;33.06;31.31;34.33;;
67308;Laerm;57662;51.436;5.978;2022-11-15T00:00:32;33.39;31.81;34.86;;
67308;Laerm;57662;51.436;5.978;2022-11-15T00:00:42;33.35;31.93;35.76;;
67308;Laerm;57662;51.436;5.978;2022-11-15T00:00:53;33.27;31.66;35.24;;
67308;Laerm;57662;51.436;5.978;2022-11-15T00:01:10;33.21;30.96;37.07;;
67308;Laerm;57662;51.436;5.978;2022-11-15T00:01:23;33.58;31.78;37.48;;
67308;Laerm;57662;51.436;5.978;2022-11-15T00:01:34;33.07;31.56;36.30;;
67308;Laerm;57662;51.436;5.978;2022-11-15T00:01:44;32.36;30.84;33.96;;
67308;Laerm;57662;51.436;5.978;2022-11-15T00:01:54;32.30;31.08;33.53;;
67308;Laerm;57662;51.436;5.978;2022-11-15T00:02:04;31.99;30.74;33.21;;
67308;Laerm;57662;51.436;5.978;2022-11-15T00:02:15;32.05;30.97;33.18;;
67308;Laerm;57662;51.436;5.978;2022-11-15T00:02:26;32.01;30.85;33.44;;
67308;Laerm;57662;51.436;5.978;2022-11-15T00:02:36;32.08;30.86;33.17;;
67308;Laerm;57662;51.436;5.978;2022-11-15T00:02:46;32.03;30.80;32.99;;
67308;Laerm;57662;51.436;5.978;2022-11-15T00:02:56;32.14;30.93;33.19;;
67308;Laerm;57662;51.436;5.978;2022-11-15T00:03:07;32.02;30.89;33.36;;
67308;Laerm;57662;51.436;5.978;2022-11-15T00:03:18;32.13;31.08;33.53;;
67308;Laerm;57662;51.436;5.978;2022-11-15T00:03:29;32.06;30.63;33.46;;
67308;Laerm;57662;51.436;5.978;2022-11-15T00:03:39;32.04;30.68;35.76;;
67308;Laerm;57662;51.436;5.978;2022-11-15T00:03:52;32.08;31.06;33.09;;
67308;Laerm;57662;51.436;5.978;2022-11-15T00:04:03;32.05;30.71;33.29;;
67308;Laerm;57662;51.436;5.978;2022-11-15T00:04:14;31.95;30.58;32.98;;
67308;Laerm;57662;51.436;5.978;2022-11-15T00:04:24;32.03;30.93;33.09;;
67308;Laerm;57662;51.436;5.978;2022-11-15T00:04:34;31.93;30.88;33.14;;
67308;Laerm;57662;51.436;5.978;2022-11-15T00:04:44;32.30;30.80;33.50;;
67308;Laerm;57662;51.436;5.978;2022-11-15T00:04:55;32.35;30.98;33.59;;
67308;Laerm;57662;51.436;5.978;2022-11-15T00:05:05;32.41;31.05;33.89;;
67308;Laerm;57662;51.436;5.978;2022-11-15T00:05:15;32.43;31.06;33.32;;
67308;Laerm;57662;51.436;5.978;2022-11-15T00:05:25;34.09;31.20;50.16;;
67308;Laerm;57662;51.436;5.978;2022-11-15T00:05:36;32.16;30.90;33.53;;
67308;Laerm;57662;51.436;5.978;2022-11-15T00:05:46;32.01;30.73;33.38;;
67308;Laerm;57662;51.436;5.978;2022-11-15T00:06:00;32.16;30.93;33.36;;
67308;Laerm;57662;51.436;5.978;2022-11-15T00:06:11;32.05;30.73;33.24;;
67308;Laerm;57662;51.436;5.978;2022-11-15T00:06:21;33.19;31.38;37.01;;
67308;Laerm;57662;51.436;5.978;2022-11-15T00:06:31;36.61;32.07;43.68;;
67308;Laerm;57662;51.436;5.978;2022-11-15T00:06:42;33.14;31.17;36.54;;
67308;Laerm;57662;51.436;5.978;2022-11-15T00:06:52;32.82;31.23;34.77;;
67308;Laerm;57662;51.436;5.978;2022-11-15T00:07:02;32.37;31.15;33.61;;
67308;Laerm;57662;51.436;5.978;2022-11-15T00:07:13;31.95;30.75;33.65;;
67308;Laerm;57662;51.436;5.978;2022-11-15T00:07:23;32.13;30.88;33.31;;
67308;Laerm;57662;51.436;5.978;2022-11-15T00:07:33;31.94;30.91;33.09;;
67308;Laerm;57662;51.436;5.978;2022-11-15T00:07:43;32.04;30.82;33.36;;
67308;Laerm;57662;51.436;5.978;2022-11-15T00:07:54;32.31;31.13;33.60;;
67308;Laerm;57662;51.436;5.978;2022-11-15T00:08:04;32.34;31.00;34.03;;
67308;Laerm;57662;51.436;5.978;2022-11-15T00:08:14;34.15;31.35;37.07;;
67308;Laerm;57662;51.436;5.978;2022-11-15T00:08:24;41.60;35.11;45.67;;
67308;Laerm;57662;51.436;5.978;2022-11-15T00:08:38;41.36;37.50;46.91;;
67308;Laerm;57662;51.436;5.978;2022-11-15T00:08:48;34.79;31.02;38.38;;
67308;Laerm;57662;51.436;5.978;2022-11-15T00:08:59;34.08;31.18;40.31;;
67308;Laerm;57662;51.436;5.978;2022-11-15T00:09:09;36.44;31.80;44.91;;
67308;Laerm;57662;51.436;5.978;2022-11-15T00:09:19;32.74;31.60;34.06;;
67308;Laerm;57662;51.436;5.978;2022-11-15T00:09:30;33.13;31.52;34.62;;
67308;Laerm;57662;51.436;5.978;2022-11-15T00:09:40;32.92;31.90;34.07;;
67308;Laerm;57662;51.436;5.978;2022-11-15T00:09:50;32.60;31.49;34.28;;
67308;Laerm;57662;51.436;5.978;2022-11-15T00:10:00;32.24;30.67;33.66;;
67308;Laerm;57662;51.436;5.978;2022-11-15T00:10:11;31.91;30.87;33.35;;
67308;Laerm;57662;51.436;5.978;2022-11-15T00:10:21;38.07;30.78;47.24;;
67308;Laerm;57662;51.436;5.978;2022-11-15T00:10:31;46.49;42.85;48.98;;
67308;Laerm;57662;51.436;5.978;2022-11-15T00:10:42;45.02;41.06;49.08;;
67308;Laerm;57662;51.436;5.978;2022-11-15T00:10:56;45.05;39.27;48.49;;
67308;Laerm;57662;51.436;5.978;2022-11-15T00:11:08;48.71;38.11;60.76;;
67308;Laerm;57662;51.436;5.978;2022-11-15T00:11:19;66.28;59.88;68.83;;
67308;Laerm;57662;51.436;5.978;2022-11-15T00:11:30;66.86;64.02;70.37;;
67308;Laerm;57662;51.436;5.978;2022-11-15T00:11:40;59.53;49.22;66.63;;
67308;Laerm;57662;51.436;5.978;2022-11-15T00:11:51;48.15;41.42;52.43;;
67308;Laerm;57662;51.436;5.978;2022-11-15T00:12:01;41.50;38.97;49.45;;
67308;Laerm;57662;51.436;5.978;2022-11-15T00:12:11;39.76;37.06;48.56;;
67308;Laerm;57662;51.436;5.978;2022-11-15T00:12:22;37.18;34.99;39.40;;
67308;Laerm;57662;51.436;5.978;2022-11-15T00:12:32;35.99;33.89;38.41;;
67308;Laerm;57662;51.436;5.978;2022-11-15T00:12:42;34.14;32.23;36.02;;
67308;Laerm;57662;51.436;5.978;2022-11-15T00:12:52;33.48;31.79;34.83;;
67308;Laerm;57662;51.436;5.978;2022-11-15T00:13:09;34.93;32.12;39.51;;
67308;Laerm;57662;51.436;5.978;2022-11-15T00:13:20;36.36;32.62;40.48;;
67308;Laerm;57662;51.436;5.978;2022-11-15T00:13:30;34.07;31.91;39.09;;
67308;Laerm;57662;51.436;5.978;2022-11-15T00:13:41;33.26;31.67;35.23;;
67308;Laerm;57662;51.436;5.978;2022-11-15T00:13:54;32.99;31.41;35.34;;
67308;Laerm;57662;51.436;5.978;2022-11-15T00:14:04;33.16;31.09;39.21;;
67308;Laerm;57662;51.436;5.978;2022-11-15T00:14:15;32.24;31.00;33.44;;
67308;Laerm;57662;51.436;5.978;2022-11-15T00:14:25;32.33;30.96;33.15;;
67308;Laerm;57662;51.436;5.978;2022-11-15T00:14:35;32.55;31.42;33.86;;
67308;Laerm;57662;51.436;5.978;2022-11-15T00:14:45;32.73;31.39;34.71;;
67308;Laerm;57662;51.436;5.978;2022-11-15T00:14:55;33.21;31.63;39.77;;
67308;Laerm;57662;51.436;5.978;2022-11-15T00:15:06;32.40;31.11;34.43;;
67308;Laerm;57662;51.436;5.978;2022-11-15T00:15:16;32.09;30.54;33.38;;
67308;Laerm;57662;51.436;5.978;2022-11-15T00:15:27;31.92;30.71;33.09;;
67308;Laerm;57662;51.436;5.978;2022-11-15T00:15:38;31.98;30.54;33.10;;
67308;Laerm;57662;51.436;5.978;2022-11-15T00:15:48;31.96;30.82;32.99;;
67308;Laerm;57662;51.436;5.978;2022-11-15T00:15:59;32.11;31.08;33.29;;
67308;Laerm;57662;51.436;5.978;2022-11-15T00:16:10;32.16;30.95;33.48;;
67308;Laerm;57662;51.436;5.978;2022-11-15T00:16:21;32.48;31.29;34.56;;
67308;Laerm;57662;51.436;5.978;2022-11-15T00:16:31;32.44;31.11;33.58;;
67308;Laerm;57662;51.436;5.978;2022-11-15T00:16:41;32.28;31.08;33.39;;
67308;Laerm;57662;51.436;5.978;2022-11-15T00:16:51;32.17;30.97;33.50;;
67308;Laerm;57662;51.436;5.978;2022-11-15T00:17:02;32.89;31.31;35.37;;
67308;Laerm;57662;51.436;5.978;2022-11-15T00:17:12;33.01;31.52;34.45;;
67308;Laerm;57662;51.436;5.978;2022-11-15T00:17:22;33.94;32.02;36.74;;
67308;Laerm;57662;51.436;5.978;2022-11-15T00:17:33;35.01;32.72;38.23;;
67308;Laerm;57662;51.436;5.978;2022-11-15T00:17:43;35.36;33.27;37.63;;
67308;Laerm;57662;51.436;5.978;2022-11-15T00:17:53;35.45;33.14;37.61;;
67308;Laerm;57662;51.436;5.978;2022-11-15T00:18:04;34.23;32.08;38.19;;
67308;Laerm;57662;51.436;5.978;2022-11-15T00:18:14;33.41;31.83;35.03;;
67308;Laerm;57662;51.436;5.978;2022-11-15T00:18:25;33.19;31.34;35.16;;
67308;Laerm;57662;51.436;5.978;2022-11-15T00:18:35;33.38;31.56;35.35;;
67308;Laerm;57662;51.436;5.978;2022-11-15T00:18:47;34.15;32.40;37.69;;
67308;Laerm;57662;51.436;5.978;2022-11-15T00:18:57;34.36;32.26;37.27;;
67308;Laerm;57662;51.436;5.978;2022-11-15T00:19:08;33.41;31.94;36.44;;
67308;Laerm;57662;51.436;5.978;2022-11-15T00:19:18;33.14;31.66;34.65;;
67308;Laerm;57662;51.436;5.978;2022-11-15T00:19:28;32.66;31.31;35.40;;
67308;Laerm;57662;51.436;5.978;2022-11-15T00:19:38;32.94;31.54;34.50;;
67308;Laerm;57662;51.436;5.978;2022-11-15T00:19:49;33.64;32.02;35.81;;
67308;Laerm;57662;51.436;5.978;2022-11-15T00:19:59;36.24;32.09;44.64;;
67308;Laerm;57662;51.436;5.978;2022-11-15T00:20:09;32.52;30.91;34.63;;
67308;Laerm;57662;51.436;5.978;2022-11-15T00:20:21;32.15;30.88;35.04;;
67308;Laerm;57662;51.436;5.978;2022-11-15T00:20:33;32.30;31.12;34.00;;
67308;Laerm;57662;51.436;5.978;2022-11-15T00:20:43;31.91;30.65;33.12;;
67308;Laerm;57662;51.436;5.978;2022-11-15T00:20:54;32.03;30.99;33.14;;
67308;Laerm;57662;51.436;5.978;2022-11-15T00:21:05;32.07;30.82;33.35;;
67308;Laerm;57662;51.436;5.978;2022-11-15T00:21:16;32.21;31.16;33.39;;
67308;Laerm;57662;51.436;5.978;2022-11-15T00:21:27;33.00;31.02;35.83;;
67308;Laerm;57662;51.436;5.978;2022-11-15T00:21:37;34.36;32.22;37.49;;
67308;Laerm;57662;51.436;5.978;2022-11-15T00:21:47;34.28;31.90;38.11;;
67308;Laerm;57662;51.436;5.978;2022-11-15T00:21:58;32.81;31.39;35.16;;
67308;Laerm;57662;51.436;5.978;2022-11-15T00:22:08;32.81;31.21;35.58;;
67308;Laerm;57662;51.436;5.978;2022-11-15T00:22:18;33.30;31.75;36.37;;
67308;Laerm;57662;51.436;5.978;2022-11-15T00:22:32;34.41;32.23;37.21;;
67308;Laerm;57662;51.436;5.978;2022-11-15T00:22:43;34.04;32.26;37.01;;
67308;Laerm;57662;51.436;5.978;2022-11-15T00:22:53;33.49;31.42;35.74;;
67308;Laerm;57662;51.436;5.978;2022-11-15T00:23:04;32.39;31.23;36.52;;
67308;Laerm;57662;51.436;5.978;2022-11-15T00:23:14;32.15;31.06;33.39;;
67308;Laerm;57662;51.436;5.978;2022-11-15T00:23:24;32.00;30.91;33.21;;
67308;Laerm;57662;51.436;5.978;2022-11-15T00:23:35;32.10;30.76;34.98;;
67308;Laerm;57662;51.436;5.978;2022-11-15T00:23:45;32.06;30.94;33.54;;
67308;Laerm;57662;51.436;5.978;2022-11-15T00:23:55;32.07;30.63;33.28;;
67308;Laerm;57662;51.436;5.978;2022-11-15T00:24:06;32.05;30.53;33.24;;
67308;Laerm;57662;51.436;5.978;2022-11-15T00:24:16;32.13;30.81;33.22;;
67308;Laerm;57662;51.436;5.978;2022-11-15T00:24:26;32.17;31.02;33.41;;
67308;Laerm;57662;51.436;5.978;2022-11-15T00:24:36;32.28;30.90;33.27;;
67308;Laerm;57662;51.436;5.978;2022-11-15T00:24:47;32.30;31.10;33.89;;
67308;Laerm;57662;51.436;5.978;2022-11-15T00:24:57;32.74;31.44;34.73;;
67308;Laerm;57662;51.436;5.978;2022-11-15T00:25:07;33.24;31.99;35.55;;
67308;Laerm;57662;51.436;5.978;2022-11-15T00:25:17;32.88;31.51;36.07;;
67308;Laerm;57662;51.436;5.978;2022-11-15T00:25:28;32.87;31.33;35.19;;
67308;Laerm;57662;51.436;5.978;2022-11-15T00:25:38;32.53;31.29;34.17;;
67308;Laerm;57662;51.436;5.978;2022-11-15T00:25:54;35.13;31.17;43.10;;
67308;Laerm;57662;51.436;5.978;2022-11-15T00:26:05;44.78;38.53;49.61;;
67308;Laerm;57662;51.436;5.978;2022-11-15T00:26:15;44.28;40.41;47.20;;
67308;Laerm;57662;51.436;5.978;2022-11-15T00:26:26;46.67;40.06;51.51;;
67308;Laerm;57662;51.436;5.978;2022-11-15T00:26:36;68.23;48.77;72.41;;
67308;Laerm;57662;51.436;5.978;2022-11-15T00:26:47;67.85;65.64;72.61;;
67308;Laerm;57662;51.436;5.978;2022-11-15T00:26:57;67.17;57.50;70.00;;
67308;Laerm;57662;51.436;5.978;2022-11-15T00:27:07;54.69;45.74;62.55;;
67308;Laerm;57662;51.436;5.978;2022-11-15T00:27:17;44.32;40.01;47.24;;
67308;Laerm;57662;51.436;5.978;2022-11-15T00:27:28;41.78;39.48;45.49;;
67308;Laerm;57662;51.436;5.978;2022-11-15T00:27:38;40.55;37.03;43.60;;
67308;Laerm;57662;51.436;5.978;2022-11-15T00:27:48;39.13;36.08;43.36;;
67308;Laerm;57662;51.436;5.978;2022-11-15T00:27:59;36.55;34.17;38.73;;
67308;Laerm;57662;51.436;5.978;2022-11-15T00:28:09;34.93;32.22;37.08;;
67308;Laerm;57662;51.436;5.978;2022-11-15T00:28:20;33.35;32.14;34.44;;
67308;Laerm;57662;51.436;5.978;2022-11-15T00:28:30;33.44;31.81;34.98;;
67308;Laerm;57662;51.436;5.978;2022-11-15T00:28:41;33.01;31.72;34.44;;
67308;Laerm;57662;51.436;5.978;2022-11-15T00:28:51;32.56;31.54;34.16;;
67308;Laerm;57662;51.436;5.978;2022-11-15T00:29:02;32.81;31.33;35.53;;
67308;Laerm;57662;51.436;5.978;2022-11-15T00:29:12;34.45;31.55;38.56;;
67308;Laerm;57662;51.436;5.978;2022-11-15T00:29:23;34.60;32.63;36.73;;
67308;Laerm;57662;51.436;5.978;2022-11-15T00:29:33;34.34;31.92;37.79;;
67308;Laerm;57662;51.436;5.978;2022-11-15T00:29:43;34.72;32.24;40.51;;
67308;Laerm;57662;51.436;5.978;2022-11-15T00:29:54;32.63;31.14;34.49;;
67308;Laerm;57662;51.436;5.978;2022-11-15T00:30:04;32.37;30.84;34.20;;
67308;Laerm;57662;51.436;5.978;2022-11-15T00:30:14;32.17;30.61;33.71;;
67308;Laerm;57662;51.436;5.978;2022-11-15T00:30:25;31.89;30.79;32.92;;
67308;Laerm;57662;51.436;5.978;2022-11-15T00:30:35;32.00;30.71;33.03;;
67308;Laerm;57662;51.436;5.978;2022-11-15T00:30:45;31.96;30.92;33.20;;
67308;Laerm;57662;51.436;5.978;2022-11-15T00:31:02;32.13;31.05;33.43;;
67308;Laerm;57662;51.436;5.978;2022-11-15T00:31:13;32.14;30.66;33.87;;
67308;Laerm;57662;51.436;5.978;2022-11-15T00:31:24;31.96;30.86;33.02;;
67308;Laerm;57662;51.436;5.978;2022-11-15T00:31:34;32.00;30.92;33.32;;
67308;Laerm;57662;51.436;5.978;2022-11-15T00:31:44;31.98;30.68;33.11;;
67308;Laerm;57662;51.436;5.978;2022-11-15T00:31:55;32.14;31.04;33.45;;
67308;Laerm;57662;51.436;5.978;2022-11-15T00:32:05;39.39;30.81;52.31;;
67308;Laerm;57662;51.436;5.978;2022-11-15T00:32:15;32.21;31.04;34.18;;
67308;Laerm;57662;51.436;5.978;2022-11-15T00:32:25;32.00;30.81;33.25;;
67308;Laerm;57662;51.436;5.978;2022-11-15T00:32:36;32.26;30.78;33.60;;
67308;Laerm;57662;51.436;5.978;2022-11-15T00:32:46;32.13;30.92;33.57;;
67308;Laerm;57662;51.436;5.978;2022-11-15T00:32:56;32.11;31.03;33.36;;
67308;Laerm;57662;51.436;5.978;2022-11-15T00:33:06;32.09;30.60;33.30;;
67308;Laerm;57662;51.436;5.978;2022-11-15T00:33:18;31.98;30.80;33.21;;
67308;Laerm;57662;51.436;5.978;2022-11-15T00:33:28;32.17;31.17;33.43;;
67308;Laerm;57662;51.436;5.978;2022-11-15T00:33:39;32.15;30.97;33.72;;
67308;Laerm;57662;51.436;5.978;2022-11-15T00:33:49;32.04;30.47;33.42;;
67308;Laerm;57662;51.436;5.978;2022-11-15T00:34:00;31.93;30.64;33.44;;
67308;Laerm;57662;51.436;5.978;2022-11-15T00:34:10;32.04;30.96;33.33;;
67308;Laerm;57662;51.436;5.978;2022-11-15T00:34:20;31.81;30.56;32.81;;
67308;Laerm;57662;51.436;5.978;2022-11-15T00:34:31;31.98;30.78;32.90;;
67308;Laerm;57662;51.436;5.978;2022-11-15T00:34:41;32.02;30.26;33.58;;
67308;Laerm;57662;51.436;5.978;2022-11-15T00:34:51;31.98;30.78;33.12;;
67308;Laerm;57662;51.436;5.978;2022-11-15T00:35:01;32.00;30.64;33.38;;
67308;Laerm;57662;51.436;5.978;2022-11-15T00:35:12;32.14;30.92;33.12;;
67308;Laerm;57662;51.436;5.978;2022-11-15T00:35:22;33.10;31.46;36.35;;
67308;Laerm;57662;51.436;5.978;2022-11-15T00:35:33;33.39;31.62;36.15;;
67308;Laerm;57662;51.436;5.978;2022-11-15T00:35:43;34.68;32.16;39.47;;
67308;Laerm;57662;51.436;5.978;2022-11-15T00:35:53;39.08;34.03;49.28;;
67308;Laerm;57662;51.436;5.978;2022-11-15T00:36:09;39.72;34.85;48.90;;
67308;Laerm;57662;51.436;5.978;2022-11-15T00:36:19;37.60;33.78;44.29;;
67308;Laerm;57662;51.436;5.978;2022-11-15T00:36:32;35.90;32.46;41.92;;
67308;Laerm;57662;51.436;5.978;2022-11-15T00:36:42;35.62;32.49;41.53;;
67308;Laerm;57662;51.436;5.978;2022-11-15T00:36:53;33.94;32.07;36.71;;
67308;Laerm;57662;51.436;5.978;2022-11-15T00:37:03;33.97;31.91;36.11;;
67308;Laerm;57662;51.436;5.978;2022-11-15T00:37:13;33.66;31.81;36.38;;
67308;Laerm;57662;51.436;5.978;2022-11-15T00:37:23;32.84;31.58;34.05;;
67308;Laerm;57662;51.436;5.978;2022-11-15T00:37:34;33.09;31.83;35.15;;
67308;Laerm;57662;51.436;5.978;2022-11-15T00:37:44;32.75;31.36;36.43;;
67308;Laerm;57662;51.436;5.978;2022-11-15T00:37:54;32.63;31.28;33.91;;
67308;Laerm;57662;51.436;5.978;2022-11-15T00:38:04;32.38;31.04;33.48;;
67308;Laerm;57662;51.436;5.978;2022-11-15T00:38:15;32.46;31.37;33.69;;
67308;Laerm;57662;51.436;5.978;2022-11-15T00:38:25;32.99;31.11;34.41;;
67308;Laerm;57662;51.436;5.978;2022-11-15T00:38:36;33.01;31.64;34.31;;
67308;Laerm;57662;51.436;5.978;2022-11-15T00:38:46;33.87;32.12;35.49;;
67308;Laerm;57662;51.436;5.978;2022-11-15T00:38:57;33.75;32.02;36.00;;
67308;Laerm;57662;51.436;5.978;2022-11-15T00:39:07;33.27;31.86;34.72;;
67308;Laerm;57662;51.436;5.978;2022-11-15T00:39:17;33.14;31.91;34.68;;
67308;Laerm;57662;51.436;5.978;2022-11-15T00:39:27;32.58;31.42;33.99;;
67308;Laerm;57662;51.436;5.978;2022-11-15T00:39:38;32.38;31.09;33.66;;
67308;Laerm;57662;51.436;5.978;2022-11-15T00:39:48;32.16;30.49;33.50;;
67308;Laerm;57662;51.436;5.978;2022-11-15T00:39:58;32.34;30.89;33.56;;
67308;Laerm;57662;51.436;5.978;2022-11-15T00:40:08;32.24;31.09;33.36;;
67308;Laerm;57662;51.436;5.978;2022-11-15T00:40:19;32.13;31.10;33.36;;
67308;Laerm;57662;51.436;5.978;2022-11-15T00:40:29;32.05;30.87;33.23;;
67308;Laerm;57662;51.436;5.978;2022-11-15T00:40:40;32.19;30.72;34.92;;
67308;Laerm;57662;51.436;5.978;2022-11-15T00:40:50;32.10;30.89;33.39;;
67308;Laerm;57662;51.436;5.978;2022-11-15T00:41:00;32.21;30.92;33.48;;
67308;Laerm;57662;51.436;5.978;2022-11-15T00:41:11;32.22;31.13;33.31;;
67308;Laerm;57662;51.436;5.978;2022-11-15T00:41:21;32.26;30.77;33.48;;
67308;Laerm;57662;51.436;5.978;2022-11-15T00:41:32;32.30;31.18;33.34;;
67308;Laerm;57662;51.436;5.978;2022-11-15T00:41:42;32.26;31.10;33.38;;
67308;Laerm;57662;51.436;5.978;2022-11-15T00:41:52;32.17;30.71;33.22;;
67308;Laerm;57662;51.436;5.978;2022-11-15T00:42:02;32.13;30.48;33.31;;
67308;Laerm;57662;51.436;5.978;2022-11-15T00:42:13;31.99;30.45;33.26;;
67308;Laerm;57662;51.436;5.978;2022-11-15T00:42:23;32.27;31.13;33.36;;
67308;Laerm;57662;51.436;5.978;2022-11-15T00:42:33;32.40;31.14;33.71;;
67308;Laerm;57662;51.436;5.978;2022-11-15T00:42:44;32.27;30.96;33.98;;
67308;Laerm;57662;51.436;5.978;2022-11-15T00:42:54;32.31;31.17;33.24;;
67308;Laerm;57662;51.436;5.978;2022-11-15T00:43:04;32.42;31.13;33.74;;
67308;Laerm;57662;51.436;5.978;2022-11-15T00:43:14;32.45;31.27;33.52;;
67308;Laerm;57662;51.436;5.978;2022-11-15T00:43:25;32.17;30.93;34.02;;
67308;Laerm;57662;51.436;5.978;2022-11-15T00:43:35;32.28;30.96;33.49;;
67308;Laerm;57662;51.436;5.978;2022-11-15T00:43:46;32.35;31.02;33.77;;
67308;Laerm;57662;51.436;5.978;2022-11-15T00:43:56;32.31;31.13;33.53;;
67308;Laerm;57662;51.436;5.978;2022-11-15T00:44:06;32.45;31.38;33.73;;
67308;Laerm;57662;51.436;5.978;2022-11-15T00:44:17;32.63;31.51;34.19;;
67308;Laerm;57662;51.436;5.978;2022-11-15T00:44:27;32.60;31.25;34.06;;
67308;Laerm;57662;51.436;5.978;2022-11-15T00:44:37;32.28;31.05;33.34;;
67308;Laerm;57662;51.436;5.978;2022-11-15T00:44:47;32.30;30.82;33.43;;
67308;Laerm;57662;51.436;5.978;2022-11-15T00:44:58;32.38;31.06;33.63;;
67308;Laerm;57662;51.436;5.978;2022-11-15T00:45:08;32.44;31.08;33.83;;
67308;Laerm;57662;51.436;5.978;2022-11-15T00:45:19;32.47;31.13;33.88;;
67308;Laerm;57662;51.436;5.978;2022-11-15T00:45:29;32.31;31.00;33.61;;
67308;Laerm;57662;51.436;5.978;2022-11-15T00:45:39;32.45;31.15;33.69;;
67308;Laerm;57662;51.436;5.978;2022-11-15T00:45:49;33.90;31.38;38.04;;
67308;Laerm;57662;51.436;5.978;2022-11-15T00:46:00;32.72;31.49;33.84;;
67308;Laerm;57662;51.436;5.978;2022-11-15T00:46:10;32.63;31.31;33.82;;
67308;Laerm;57662;51.436;5.978;2022-11-15T00:46:20;32.81;31.31;34.86;;
67308;Laerm;57662;51.436;5.978;2022-11-15T00:46:30;32.69;31.54;34.33;;
67308;Laerm;57662;51.436;5.978;2022-11-15T00:46:41;32.66;31.26;34.23;;
67308;Laerm;57662;51.436;5.978;2022-11-15T00:46:51;32.47;31.09;33.99;;
67308;Laerm;57662;51.436;5.978;2022-11-15T00:47:01;32.79;31.37;34.57;;
67308;Laerm;57662;51.436;5.978;2022-11-15T00:47:11;33.00;31.80;34.71;;
67308;Laerm;57662;51.436;5.978;2022-11-15T00:47:22;32.93;31.50;35.66;;
67308;Laerm;57662;51.436;5.978;2022-11-15T00:47:32;32.80;31.60;34.53;;
67308;Laerm;57662;51.436;5.978;2022-11-15T00:47:45;32.41;31.19;33.79;;
67308;Laerm;57662;51.436;5.978;2022-11-15T00:47:56;32.39;31.18;33.43;;
67308;Laerm;57662;51.436;5.978;2022-11-15T00:48:06;32.50;31.10;33.67;;
67308;Laerm;57662;51.436;5.978;2022-11-15T00:48:17;32.71;31.28;34.03;;
67308;Laerm;57662;51.436;5.978;2022-11-15T00:48:27;32.95;31.37;34.74;;
67308;Laerm;57662;51.436;5.978;2022-11-15T00:48:38;33.07;31.57;34.86;;
67308;Laerm;57662;51.436;5.978;2022-11-15T00:48:48;34.27;32.34;35.96;;
67308;Laerm;57662;51.436;5.978;2022-11-15T00:48:58;34.31;32.33;36.01;;
67308;Laerm;57662;51.436;5.978;2022-11-15T00:49:08;33.98;32.22;35.97;;
67308;Laerm;57662;51.436;5.978;2022-11-15T00:49:19;35.23;32.47;38.07;;
67308;Laerm;57662;51.436;5.978;2022-11-15T00:49:29;36.93;34.35;41.04;;
67308;Laerm;57662;51.436;5.978;2022-11-15T00:49:39;36.32;33.17;42.00;;
67308;Laerm;57662;51.436;5.978;2022-11-15T00:49:50;35.23;32.78;38.22;;
67308;Laerm;57662;51.436;5.978;2022-11-15T00:50:01;35.09;32.99;39.04;;
67308;Laerm;57662;51.436;5.978;2022-11-15T00:50:11;34.50;32.72;38.33;;
67308;Laerm;57662;51.436;5.978;2022-11-15T00:50:22;34.16;31.94;40.89;;
67308;Laerm;57662;51.436;5.978;2022-11-15T00:50:32;32.74;31.48;33.90;;
67308;Laerm;57662;51.436;5.978;2022-11-15T00:50:42;32.85;31.12;34.39;;
67308;Laerm;57662;51.436;5.978;2022-11-15T00:50:52;32.83;31.69;34.19;;
67308;Laerm;57662;51.436;5.978;2022-11-15T00:51:03;33.08;31.68;34.74;;
67308;Laerm;57662;51.436;5.978;2022-11-15T00:51:13;33.70;32.19;35.54;;
67308;Laerm;57662;51.436;5.978;2022-11-15T00:51:23;33.89;32.27;36.35;;
67308;Laerm;57662;51.436;5.978;2022-11-15T00:51:34;34.53;32.16;37.25;;
67308;Laerm;57662;51.436;5.978;2022-11-15T00:51:44;34.04;32.55;36.35;;
67308;Laerm;57662;51.436;5.978;2022-11-15T00:51:55;34.29;32.79;35.92;;
67308;Laerm;57662;51.436;5.978;2022-11-15T00:52:05;34.46;32.88;36.99;;
67308;Laerm;57662;51.436;5.978;2022-11-15T00:52:15;41.98;32.74;46.05;;
67308;Laerm;57662;51.436;5.978;2022-11-15T00:52:26;43.66;39.45;45.93;;
67308;Laerm;57662;51.436;5.978;2022-11-15T00:52:36;43.82;39.90;46.59;;
67308;Laerm;57662;51.436;5.978;2022-11-15T00:52:46;43.80;40.53;47.17;;
67308;Laerm;57662;51.436;5.978;2022-11-15T00:52:56;50.82;42.23;63.37;;
67308;Laerm;57662;51.436;5.978;2022-11-15T00:53:06;67.43;60.95;70.56;;
67308;Laerm;57662;51.436;5.978;2022-11-15T00:53:17;66.53;64.42;71.22;;
67308;Laerm;57662;51.436;5.978;2022-11-15T00:53:27;59.33;46.33;66.35;;
67308;Laerm;57662;51.436;5.978;2022-11-15T00:53:38;45.33;38.50;49.90;;
67308;Laerm;57662;51.436;5.978;2022-11-15T00:53:48;39.22;36.45;44.61;;
67308;Laerm;57662;51.436;5.978;2022-11-15T00:53:58;40.08;37.10;51.74;;
67308;Laerm;57662;51.436;5.978;2022-11-15T00:54:08;36.47;34.46;39.54;;
67308;Laerm;57662;51.436;5.978;2022-11-15T00:54:19;35.69;33.31;39.01;;
67308;Laerm;57662;51.436;5.978;2022-11-15T00:54:29;34.96;33.30;36.57;;
67308;Laerm;57662;51.436;5.978;2022-11-15T00:54:39;34.03;32.35;36.03;;
67308;Laerm;57662;51.436;5.978;2022-11-15T00:54:49;33.84;32.27;35.37;;
67308;Laerm;57662;51.436;5.978;2022-11-15T00:55:00;33.44;31.45;35.88;;
67308;Laerm;57662;51.436;5.978;2022-11-15T00:55:14;32.65;31.19;33.97;;
67308;Laerm;57662;51.436;5.978;2022-11-15T00:55:25;32.60;30.84;34.64;;
67308;Laerm;57662;51.436;5.978;2022-11-15T00:55:35;32.68;31.51;33.95;;
67308;Laerm;57662;51.436;5.978;2022-11-15T00:55:46;32.58;31.06;33.87;;
67308;Laerm;57662;51.436;5.978;2022-11-15T00:55:56;32.63;31.58;33.69;;
67308;Laerm;57662;51.436;5.978;2022-11-15T00:56:06;32.52;31.25;34.61;;
67308;Laerm;57662;51.436;5.978;2022-11-15T00:56:17;32.70;31.55;34.62;;
67308;Laerm;57662;51.436;5.978;2022-11-15T00:56:27;32.62;31.35;34.07;;
67308;Laerm;57662;51.436;5.978;2022-11-15T00:56:37;32.38;31.27;33.92;;
67308;Laerm;57662;51.436;5.978;2022-11-15T00:56:47;32.30;31.34;33.35;;
67308;Laerm;57662;51.436;5.978;2022-11-15T00:56:58;32.41;31.16;33.59;;
67308;Laerm;57662;51.436;5.978;2022-11-15T00:57:08;32.56;31.45;33.99;;
67308;Laerm;57662;51.436;5.978;2022-11-15T00:57:18;34.17;32.20;35.84;;
67308;Laerm;57662;51.436;5.978;2022-11-15T00:57:28;41.88;33.15;48.26;;
67308;Laerm;57662;51.436;5.978;2022-11-15T00:57:39;49.08;43.03;53.68;;
67308;Laerm;57662;51.436;5.978;2022-11-15T00:57:49;45.59;36.55;50.94;;
67308;Laerm;57662;51.436;5.978;2022-11-15T00:57:59;35.69;32.76;38.43;;
67308;Laerm;57662;51.436;5.978;2022-11-15T00:58:09;33.52;32.10;35.86;;
67308;Laerm;57662;51.436;5.978;2022-11-15T00:58:20;33.10;31.80;34.62;;
67308;Laerm;57662;51.436;5.978;2022-11-15T00:58:30;33.05;31.58;34.15;;
67308;Laerm;57662;51.436;5.978;2022-11-15T00:58:40;32.83;31.36;34.39;;
67308;Laerm;57662;51.436;5.978;2022-11-15T00:58:51;32.66;31.64;33.98;;
67308;Laerm;57662;51.436;5.978;2022-11-15T00:59:02;32.63;31.45;33.73;;